sensor_id;sensor_type;location;lat;lon;timestamp;pressure;altitude;pressure_sealevel;temperature;humidity
9421;BME280;4749;51.398;5.466;2022-10-16T00:01:43;100853.81;;;13.85;100.00
9421;BME280;4749;51.398;5.466;2022-10-16T00:04:10;100859.97;;;13.85;100.00
9421;BME280;4749;51.398;5.466;2022-10-16T00:06:37;100854.69;;;13.85;100.00
9421;BME280;4749;51.398;5.466;2022-10-16T00:09:06;100859.97;;;13.85;100.00
9421;BME280;4749;51.398;5.466;2022-10-16T00:11:38;100863.50;;;13.84;100.00
9421;BME280;4749;51.398;5.466;2022-10-16T00:14:11;100848.50;;;13.85;100.00
9421;BME280;4749;51.398;5.466;2022-10-16T00:16:39;100850.31;;;13.83;100.00
9421;BME280;4749;51.398;5.466;2022-10-16T00:19:06;100862.63;;;13.84;100.00
9421;BME280;4749;51.398;5.466;2022-10-16T00:21:34;100865.25;;;13.85;100.00
9421;BME280;4749;51.398;5.466;2022-10-16T00:24:08;100852.97;;;13.81;100.00
9421;BME280;4749;51.398;5.466;2022-10-16T00:26:37;100853.00;;;13.76;100.00
9421;BME280;4749;51.398;5.466;2022-10-16T00:29:05;100848.66;;;13.72;100.00
9421;BME280;4749;51.398;5.466;2022-10-16T00:31:32;100853.06;;;13.69;100.00
9421;BME280;4749;51.398;5.466;2022-10-16T00:33:59;100854.84;;;13.68;100.00
9421;BME280;4749;51.398;5.466;2022-10-16T00:36:27;100853.13;;;13.66;100.00
9421;BME280;4749;51.398;5.466;2022-10-16T00:38:56;100852.25;;;13.64;100.00
9421;BME280;4749;51.398;5.466;2022-10-16T00:41:31;100857.56;;;13.62;100.00
9421;BME280;4749;51.398;5.466;2022-10-16T00:44:03;100868.13;;;13.61;100.00
9421;BME280;4749;51.398;5.466;2022-10-16T00:46:56;100876.97;;;13.58;100.00
9421;BME280;4749;51.398;5.466;2022-10-16T00:49:31;100871.72;;;13.55;100.00
9421;BME280;4749;51.398;5.466;2022-10-16T00:51:58;100873.47;;;13.53;100.00
9421;BME280;4749;51.398;5.466;2022-10-16T00:54:30;100869.97;;;13.52;100.00
9421;BME280;4749;51.398;5.466;2022-10-16T00:57:03;100876.16;;;13.50;100.00
9421;BME280;4749;51.398;5.466;2022-10-16T00:59:35;100870.94;;;13.45;100.00
9421;BME280;4749;51.398;5.466;2022-10-16T01:02:06;100870.03;;;13.43;100.00
9421;BME280;4749;51.398;5.466;2022-10-16T01:04:45;100875.38;;;13.40;100.00
9421;BME280;4749;51.398;5.466;2022-10-16T01:07:45;100860.41;;;13.36;100.00
9421;BME280;4749;51.398;5.466;2022-10-16T01:10:35;100856.03;;;13.34;100.00
9421;BME280;4749;51.398;5.466;2022-10-16T01:13:26;100853.44;;;13.32;100.00
9421;BME280;4749;51.398;5.466;2022-10-16T01:16:40;100850.81;;;13.29;100.00
9421;BME280;4749;51.398;5.466;2022-10-16T01:22:15;100864.91;;;13.27;100.00
9421;BME280;4749;51.398;5.466;2022-10-16T01:24:49;100853.47;;;13.26;100.00
9421;BME280;4749;51.398;5.466;2022-10-16T01:27:27;100858.75;;;13.26;100.00
9421;BME280;4749;51.398;5.466;2022-10-16T01:30:23;100854.34;;;13.25;100.00
9421;BME280;4749;51.398;5.466;2022-10-16T01:33:30;100865.81;;;13.24;100.00
9421;BME280;4749;51.398;5.466;2022-10-16T01:36:11;100867.56;;;13.19;100.00
9421;BME280;4749;51.398;5.466;2022-10-16T01:38:40;100868.47;;;13.19;100.00
9421;BME280;4749;51.398;5.466;2022-10-16T01:41:26;100870.25;;;13.20;100.00
9421;BME280;4749;51.398;5.466;2022-10-16T01:44:22;100877.28;;;13.21;100.00
9421;BME280;4749;51.398;5.466;2022-10-16T01:46:52;100874.63;;;13.23;100.00
9421;BME280;4749;51.398;5.466;2022-10-16T01:49:23;100868.41;;;13.27;100.00
9421;BME280;4749;51.398;5.466;2022-10-16T01:51:56;100867.53;;;13.31;100.00
9421;BME280;4749;51.398;5.466;2022-10-16T01:54:31;100868.34;;;13.35;100.00
9421;BME280;4749;51.398;5.466;2022-10-16T01:57:01;100870.97;;;13.36;100.00
9421;BME280;4749;51.398;5.466;2022-10-16T01:59:31;100878.84;;;13.42;100.00
9421;BME280;4749;51.398;5.466;2022-10-16T02:02:04;100877.97;;;13.43;100.00
9421;BME280;4749;51.398;5.466;2022-10-16T02:04:46;100870.03;;;13.46;100.00
9421;BME280;4749;51.398;5.466;2022-10-16T02:07:15;100873.53;;;13.48;100.00
9421;BME280;4749;51.398;5.466;2022-10-16T02:09:43;100877.03;;;13.49;100.00
9421;BME280;4749;51.398;5.466;2022-10-16T02:12:42;100875.31;;;13.45;100.00
9421;BME280;4749;51.398;5.466;2022-10-16T02:15:12;100878.91;;;13.39;100.00
9421;BME280;4749;51.398;5.466;2022-10-16T02:17:39;100875.38;;;13.39;100.00
9421;BME280;4749;51.398;5.466;2022-10-16T02:20:07;100865.72;;;13.35;100.00
9421;BME280;4749;51.398;5.466;2022-10-16T02:22:44;100873.66;;;13.33;100.00
9421;BME280;4749;51.398;5.466;2022-10-16T02:28:17;100870.16;;;13.31;100.00
9421;BME280;4749;51.398;5.466;2022-10-16T02:30:57;100871.94;;;13.28;100.00
9421;BME280;4749;51.398;5.466;2022-10-16T02:33:26;100862.25;;;13.27;100.00
9421;BME280;4749;51.398;5.466;2022-10-16T02:35:54;100868.44;;;13.26;100.00
9421;BME280;4749;51.398;5.466;2022-10-16T02:38:23;100876.38;;;13.24;100.00
9421;BME280;4749;51.398;5.466;2022-10-16T02:40:52;100874.63;;;13.21;100.00
9421;BME280;4749;51.398;5.466;2022-10-16T02:43:19;100875.53;;;13.20;100.00
9421;BME280;4749;51.398;5.466;2022-10-16T02:45:46;100871.97;;;13.20;100.00
9421;BME280;4749;51.398;5.466;2022-10-16T02:48:13;100872.84;;;13.17;100.00
9421;BME280;4749;51.398;5.466;2022-10-16T02:50:41;100871.09;;;13.18;100.00
9421;BME280;4749;51.398;5.466;2022-10-16T02:53:08;100876.38;;;13.16;100.00
9421;BME280;4749;51.398;5.466;2022-10-16T02:55:35;100867.59;;;13.16;100.00
9421;BME280;4749;51.398;5.466;2022-10-16T02:58:02;100871.13;;;13.15;100.00
9421;BME280;4749;51.398;5.466;2022-10-16T03:00:29;100869.38;;;13.14;100.00
9421;BME280;4749;51.398;5.466;2022-10-16T03:02:56;100880.81;;;13.11;100.00
9421;BME280;4749;51.398;5.466;2022-10-16T03:05:23;100878.19;;;13.13;100.00
9421;BME280;4749;51.398;5.466;2022-10-16T03:07:50;100886.09;;;13.11;100.00
9421;BME280;4749;51.398;5.466;2022-10-16T03:10:19;100889.63;;;13.13;100.00
9421;BME280;4749;51.398;5.466;2022-10-16T03:12:46;100892.25;;;13.13;100.00
9421;BME280;4749;51.398;5.466;2022-10-16T03:15:13;100891.38;;;13.13;100.00
9421;BME280;4749;51.398;5.466;2022-10-16T03:17:40;100898.41;;;13.14;100.00
9421;BME280;4749;51.398;5.466;2022-10-16T03:20:07;100904.56;;;13.14;100.00
9421;BME280;4749;51.398;5.466;2022-10-16T03:22:34;100904.56;;;13.16;100.00
9421;BME280;4749;51.398;5.466;2022-10-16T03:25:01;100899.28;;;13.16;100.00
9421;BME280;4749;51.398;5.466;2022-10-16T03:27:29;100901.91;;;13.17;100.00
9421;BME280;4749;51.398;5.466;2022-10-16T03:29:55;100914.22;;;13.18;100.00
9421;BME280;4749;51.398;5.466;2022-10-16T03:32:22;100915.09;;;13.19;100.00
9421;BME280;4749;51.398;5.466;2022-10-16T03:34:51;100905.44;;;13.19;100.00
9421;BME280;4749;51.398;5.466;2022-10-16T03:37:20;100901.88;;;13.19;100.00
9421;BME280;4749;51.398;5.466;2022-10-16T03:39:47;100904.56;;;13.20;100.00
9421;BME280;4749;51.398;5.466;2022-10-16T03:42:14;100910.72;;;13.21;100.00
9421;BME280;4749;51.398;5.466;2022-10-16T03:44:41;100922.16;;;13.21;100.00
9421;BME280;4749;51.398;5.466;2022-10-16T03:47:08;100921.25;;;13.24;100.00
9421;BME280;4749;51.398;5.466;2022-10-16T03:49:35;100919.47;;;13.26;100.00
9421;BME280;4749;51.398;5.466;2022-10-16T03:52:02;100926.56;;;13.22;100.00
9421;BME280;4749;51.398;5.466;2022-10-16T03:54:29;100934.44;;;13.26;100.00
9421;BME280;4749;51.398;5.466;2022-10-16T03:56:56;100930.03;;;13.26;100.00
9421;BME280;4749;51.398;5.466;2022-10-16T03:59:23;100933.53;;;13.27;100.00
9421;BME280;4749;51.398;5.466;2022-10-16T04:01:50;100928.25;;;13.30;100.00
9421;BME280;4749;51.398;5.466;2022-10-16T04:04:17;100929.13;;;13.30;100.00
9421;BME280;4749;51.398;5.466;2022-10-16T04:06:44;100923.84;;;13.32;100.00
9421;BME280;4749;51.398;5.466;2022-10-16T04:09:12;100923.81;;;13.33;100.00
9421;BME280;4749;51.398;5.466;2022-10-16T04:11:41;100933.50;;;13.34;100.00
9421;BME280;4749;51.398;5.466;2022-10-16T04:14:08;100933.50;;;13.34;100.00
9421;BME280;4749;51.398;5.466;2022-10-16T04:16:35;100934.34;;;13.36;100.00
9421;BME280;4749;51.398;5.466;2022-10-16T04:19:02;100937.88;;;13.37;100.00
9421;BME280;4749;51.398;5.466;2022-10-16T04:21:29;100941.41;;;13.36;100.00
9421;BME280;4749;51.398;5.466;2022-10-16T04:23:56;100941.41;;;13.34;100.00
9421;BME280;4749;51.398;5.466;2022-10-16T04:26:23;100938.75;;;13.36;100.00
9421;BME280;4749;51.398;5.466;2022-10-16T04:28:50;100937.88;;;13.38;100.00
9421;BME280;4749;51.398;5.466;2022-10-16T04:31:18;100933.47;;;13.39;100.00
9421;BME280;4749;51.398;5.466;2022-10-16T04:33:45;100937.88;;;13.38;100.00
9421;BME280;4749;51.398;5.466;2022-10-16T04:36:13;100940.53;;;13.38;100.00
9421;BME280;4749;51.398;5.466;2022-10-16T04:38:40;100936.13;;;13.39;100.00
9421;BME280;4749;51.398;5.466;2022-10-16T04:41:07;100939.66;;;13.38;100.00
9421;BME280;4749;51.398;5.466;2022-10-16T04:43:34;100945.81;;;13.38;100.00
9421;BME280;4749;51.398;5.466;2022-10-16T04:46:02;100959.00;;;13.40;100.00
9421;BME280;4749;51.398;5.466;2022-10-16T04:48:32;100954.59;;;13.39;100.00
9421;BME280;4749;51.398;5.466;2022-10-16T04:50:59;100956.34;;;13.37;100.00
9421;BME280;4749;51.398;5.466;2022-10-16T04:53:26;100956.38;;;13.38;100.00
9421;BME280;4749;51.398;5.466;2022-10-16T04:55:53;100967.81;;;13.36;100.00
9421;BME280;4749;51.398;5.466;2022-10-16T04:58:20;100966.06;;;13.33;100.00
9421;BME280;4749;51.398;5.466;2022-10-16T05:00:48;100966.06;;;13.35;100.00
9421;BME280;4749;51.398;5.466;2022-10-16T05:03:15;100961.63;;;13.37;100.00
9421;BME280;4749;51.398;5.466;2022-10-16T05:05:46;100965.19;;;13.37;100.00
9421;BME280;4749;51.398;5.466;2022-10-16T05:08:15;100966.91;;;13.40;100.00
9421;BME280;4749;51.398;5.466;2022-10-16T05:10:44;100971.34;;;13.38;100.00
9421;BME280;4749;51.398;5.466;2022-10-16T05:13:11;100989.81;;;13.38;100.00
9421;BME280;4749;51.398;5.466;2022-10-16T05:15:39;100990.69;;;13.38;100.00
9421;BME280;4749;51.398;5.466;2022-10-16T05:18:06;100999.50;;;13.37;100.00
9421;BME280;4749;51.398;5.466;2022-10-16T05:20:33;100997.72;;;13.36;100.00
9421;BME280;4749;51.398;5.466;2022-10-16T05:23:00;100992.44;;;13.36;100.00
9421;BME280;4749;51.398;5.466;2022-10-16T05:25:27;100998.63;;;13.35;100.00
9421;BME280;4749;51.398;5.466;2022-10-16T05:27:54;100995.09;;;13.35;100.00
9421;BME280;4749;51.398;5.466;2022-10-16T05:30:21;101000.38;;;13.35;100.00
9421;BME280;4749;51.398;5.466;2022-10-16T05:32:51;100998.63;;;13.34;100.00
9421;BME280;4749;51.398;5.466;2022-10-16T05:35:19;101008.31;;;13.35;100.00
9421;BME280;4749;51.398;5.466;2022-10-16T05:37:47;101005.69;;;13.33;100.00
9421;BME280;4749;51.398;5.466;2022-10-16T05:40:14;101020.69;;;13.30;100.00
9421;BME280;4749;51.398;5.466;2022-10-16T05:42:41;101022.41;;;13.28;100.00
9421;BME280;4749;51.398;5.466;2022-10-16T05:45:11;101026.84;;;13.26;100.00
9421;BME280;4749;51.398;5.466;2022-10-16T05:47:39;101039.19;;;13.23;100.00
9421;BME280;4749;51.398;5.466;2022-10-16T05:50:07;101039.19;;;13.22;100.00
9421;BME280;4749;51.398;5.466;2022-10-16T05:52:34;101048.84;;;13.20;100.00
9421;BME280;4749;51.398;5.466;2022-10-16T05:55:01;101046.22;;;13.17;100.00
9421;BME280;4749;51.398;5.466;2022-10-16T05:57:28;101045.34;;;13.15;100.00
9421;BME280;4749;51.398;5.466;2022-10-16T05:59:56;101047.13;;;13.14;100.00
9421;BME280;4749;51.398;5.466;2022-10-16T06:02:23;101053.28;;;13.13;100.00
9421;BME280;4749;51.398;5.466;2022-10-16T06:04:52;101056.78;;;13.11;100.00
9421;BME280;4749;51.398;5.466;2022-10-16T06:07:21;101064.72;;;13.08;100.00
9421;BME280;4749;51.398;5.466;2022-10-16T06:09:52;101068.25;;;13.10;100.00
9421;BME280;4749;51.398;5.466;2022-10-16T06:12:19;101073.50;;;13.10;100.00
9421;BME280;4749;51.398;5.466;2022-10-16T06:14:46;101080.53;;;13.11;100.00
9421;BME280;4749;51.398;5.466;2022-10-16T06:17:14;101079.66;;;13.10;100.00
9421;BME280;4749;51.398;5.466;2022-10-16T06:19:41;101085.81;;;13.11;100.00
9421;BME280;4749;51.398;5.466;2022-10-16T06:22:09;101091.97;;;13.11;100.00
9421;BME280;4749;51.398;5.466;2022-10-16T06:24:36;101092.88;;;13.12;100.00
9421;BME280;4749;51.398;5.466;2022-10-16T06:27:04;101096.41;;;13.12;100.00
9421;BME280;4749;51.398;5.466;2022-10-16T06:29:31;101094.66;;;13.13;100.00
9421;BME280;4749;51.398;5.466;2022-10-16T06:31:58;101089.38;;;13.13;100.00
9421;BME280;4749;51.398;5.466;2022-10-16T06:34:25;101096.41;;;13.14;100.00
9421;BME280;4749;51.398;5.466;2022-10-16T06:36:52;101097.25;;;13.16;100.00
9421;BME280;4749;51.398;5.466;2022-10-16T06:39:19;101096.38;;;13.17;100.00
9421;BME280;4749;51.398;5.466;2022-10-16T06:41:46;101111.34;;;13.19;100.00
9421;BME280;4749;51.398;5.466;2022-10-16T06:44:14;101124.56;;;13.21;100.00
9421;BME280;4749;51.398;5.466;2022-10-16T06:46:41;101121.03;;;13.23;100.00
9421;BME280;4749;51.398;5.466;2022-10-16T06:49:08;101125.41;;;13.28;100.00
9421;BME280;4749;51.398;5.466;2022-10-16T06:51:35;101120.09;;;13.32;100.00
9421;BME280;4749;51.398;5.466;2022-10-16T06:54:08;101129.78;;;13.38;100.00
9421;BME280;4749;51.398;5.466;2022-10-16T06:56:36;101137.66;;;13.42;100.00
9421;BME280;4749;51.398;5.466;2022-10-16T06:59:03;101149.09;;;13.49;100.00
9421;BME280;4749;51.398;5.466;2022-10-16T07:01:30;101150.84;;;13.55;100.00
9421;BME280;4749;51.398;5.466;2022-10-16T07:03:58;101159.59;;;13.60;100.00
9421;BME280;4749;51.398;5.466;2022-10-16T07:06:26;101160.47;;;13.62;100.00
9421;BME280;4749;51.398;5.466;2022-10-16T07:08:54;101161.31;;;13.70;100.00
9421;BME280;4749;51.398;5.466;2022-10-16T07:11:23;101163.03;;;13.77;100.00
9421;BME280;4749;51.398;5.466;2022-10-16T07:13:51;101166.53;;;13.82;100.00
9421;BME280;4749;51.398;5.466;2022-10-16T07:16:28;101170.03;;;13.90;100.00
9421;BME280;4749;51.398;5.466;2022-10-16T07:18:57;101174.41;;;13.96;100.00
9421;BME280;4749;51.398;5.466;2022-10-16T07:21:30;101174.34;;;14.00;100.00
9421;BME280;4749;51.398;5.466;2022-10-16T07:23:59;101176.06;;;14.07;100.00
9421;BME280;4749;51.398;5.466;2022-10-16T07:26:30;101187.47;;;14.16;100.00
9421;BME280;4749;51.398;5.466;2022-10-16T07:28:58;101188.31;;;14.22;100.00
9421;BME280;4749;51.398;5.466;2022-10-16T07:31:26;101194.44;;;14.27;100.00
9421;BME280;4749;51.398;5.466;2022-10-16T07:33:54;101200.56;;;14.35;100.00
9421;BME280;4749;51.398;5.466;2022-10-16T07:36:21;101201.38;;;14.44;100.00
9421;BME280;4749;51.398;5.466;2022-10-16T07:38:48;101204.84;;;14.53;100.00
9421;BME280;4749;51.398;5.466;2022-10-16T07:41:21;101208.34;;;14.63;100.00
9421;BME280;4749;51.398;5.466;2022-10-16T07:43:51;101211.78;;;14.73;100.00
9421;BME280;4749;51.398;5.466;2022-10-16T07:46:20;101209.94;;;14.82;100.00
9421;BME280;4749;51.398;5.466;2022-10-16T07:48:48;101214.28;;;14.89;100.00
9421;BME280;4749;51.398;5.466;2022-10-16T07:51:18;101223.00;;;14.99;100.00
9421;BME280;4749;51.398;5.466;2022-10-16T07:53:47;101237.06;;;15.07;100.00
9421;BME280;4749;51.398;5.466;2022-10-16T07:56:16;101229.91;;;15.15;100.00
9421;BME280;4749;51.398;5.466;2022-10-16T07:58:44;101242.19;;;15.24;100.00
9421;BME280;4749;51.398;5.466;2022-10-16T08:01:14;101240.34;;;15.32;100.00
9421;BME280;4749;51.398;5.466;2022-10-16T08:03:44;101251.69;;;15.42;100.00
9421;BME280;4749;51.398;5.466;2022-10-16T08:06:11;101261.25;;;15.57;100.00
9421;BME280;4749;51.398;5.466;2022-10-16T08:08:38;101251.41;;;15.71;100.00
9421;BME280;4749;51.398;5.466;2022-10-16T08:11:05;101268.03;;;15.85;100.00
9421;BME280;4749;51.398;5.466;2022-10-16T08:13:32;101265.31;;;15.91;100.00
9421;BME280;4749;51.398;5.466;2022-10-16T08:15:59;101272.31;;;15.94;100.00
9421;BME280;4749;51.398;5.466;2022-10-16T08:18:27;101268.75;;;15.98;100.00
9421;BME280;4749;51.398;5.466;2022-10-16T08:20:58;101269.53;;;16.04;100.00
9421;BME280;4749;51.398;5.466;2022-10-16T08:23:27;101272.19;;;16.04;100.00
9421;BME280;4749;51.398;5.466;2022-10-16T08:25:56;101280.88;;;16.14;100.00
9421;BME280;4749;51.398;5.466;2022-10-16T08:28:28;101276.47;;;16.16;100.00
9421;BME280;4749;51.398;5.466;2022-10-16T08:30:55;101274.63;;;16.20;100.00
9421;BME280;4749;51.398;5.466;2022-10-16T08:33:23;101272.84;;;16.20;100.00
9421;BME280;4749;51.398;5.466;2022-10-16T08:35:54;101283.34;;;16.29;100.00
9421;BME280;4749;51.398;5.466;2022-10-16T08:38:21;101284.16;;;16.35;100.00
9421;BME280;4749;51.398;5.466;2022-10-16T08:40:48;101285.88;;;16.40;100.00
9421;BME280;4749;51.398;5.466;2022-10-16T08:49:17;101304.13;;;16.61;100.00
9421;BME280;4749;51.398;5.466;2022-10-16T08:51:44;101297.84;;;16.69;100.00
9421;BME280;4749;51.398;5.466;2022-10-16T08:57:11;101311.03;;;16.75;100.00
9421;BME280;4749;51.398;5.466;2022-10-16T08:59:38;101306.44;;;16.86;100.00
9421;BME280;4749;51.398;5.466;2022-10-16T09:02:35;101306.31;;;16.94;100.00
9421;BME280;4749;51.398;5.466;2022-10-16T09:05:38;101307.06;;;17.02;100.00
9421;BME280;4749;51.398;5.466;2022-10-16T09:10:59;101314.94;;;17.08;100.00
9421;BME280;4749;51.398;5.466;2022-10-16T09:14:00;101312.16;;;17.15;100.00
9421;BME280;4749;51.398;5.466;2022-10-16T09:16:36;101314.66;;;17.23;100.00
9421;BME280;4749;51.398;5.466;2022-10-16T09:19:31;101319.00;;;17.29;100.00
9421;BME280;4749;51.398;5.466;2022-10-16T09:22:15;101316.19;;;17.36;100.00
9421;BME280;4749;51.398;5.466;2022-10-16T09:24:42;101322.28;;;17.43;100.00
9421;BME280;4749;51.398;5.466;2022-10-16T09:27:14;101331.00;;;17.51;100.00
9421;BME280;4749;51.398;5.466;2022-10-16T09:29:41;101337.09;;;17.56;100.00
9421;BME280;4749;51.398;5.466;2022-10-16T09:32:15;101333.34;;;17.68;100.00
9421;BME280;4749;51.398;5.466;2022-10-16T09:34:50;101337.69;;;17.75;100.00
9421;BME280;4749;51.398;5.466;2022-10-16T09:37:21;101337.50;;;17.84;100.00
9421;BME280;4749;51.398;5.466;2022-10-16T09:39:53;101336.47;;;17.91;100.00
9421;BME280;4749;51.398;5.466;2022-10-16T09:42:41;101338.09;;;18.00;100.00
9421;BME280;4749;51.398;5.466;2022-10-16T09:45:22;101337.81;;;18.12;100.00
9421;BME280;4749;51.398;5.466;2022-10-16T09:47:50;101341.25;;;18.19;100.00
9421;BME280;4749;51.398;5.466;2022-10-16T09:50:26;101346.38;;;18.28;100.00
9421;BME280;4749;51.398;5.466;2022-10-16T09:53:12;101348.47;;;18.12;100.00
9421;BME280;4749;51.398;5.466;2022-10-16T09:55:50;101341.28;;;18.16;100.00
9421;BME280;4749;51.398;5.466;2022-10-16T09:58:21;101335.94;;;18.17;100.00
9421;BME280;4749;51.398;5.466;2022-10-16T10:00:52;101345.75;;;18.14;100.00
9421;BME280;4749;51.398;5.466;2022-10-16T10:03:42;101345.19;;;17.98;100.00
9421;BME280;4749;51.398;5.466;2022-10-16T10:06:27;101346.56;;;18.19;100.00
9421;BME280;4749;51.398;5.466;2022-10-16T10:08:56;101345.72;;;18.15;100.00
9421;BME280;4749;51.398;5.466;2022-10-16T10:11:44;101351.88;;;18.19;100.00
9421;BME280;4749;51.398;5.466;2022-10-16T10:16:53;101351.13;;;18.54;100.00
9421;BME280;4749;51.398;5.466;2022-10-16T10:19:28;101356.41;;;18.55;100.00
9421;BME280;4749;51.398;5.466;2022-10-16T10:21:58;101353.00;;;18.49;100.00
9421;BME280;4749;51.398;5.466;2022-10-16T10:24:25;101361.50;;;18.66;100.00
9421;BME280;4749;51.398;5.466;2022-10-16T10:27:10;101353.13;;;18.84;100.00
9421;BME280;4749;51.398;5.466;2022-10-16T10:30:01;101356.25;;;19.02;100.00
9421;BME280;4749;51.398;5.466;2022-10-16T10:33:17;101362.09;;;19.18;100.00
9421;BME280;4749;51.398;5.466;2022-10-16T10:38:57;101371.06;;;19.49;100.00
9421;BME280;4749;51.398;5.466;2022-10-16T10:44:54;101370.69;;;19.64;100.00
9421;BME280;4749;51.398;5.466;2022-10-16T10:47:42;101370.28;;;19.46;100.00
9421;BME280;4749;51.398;5.466;2022-10-16T10:51:36;101383.94;;;19.32;100.00
9421;BME280;4749;51.398;5.466;2022-10-16T10:54:15;101381.03;;;19.43;100.00
9421;BME280;4749;51.398;5.466;2022-10-16T10:57:02;101377.09;;;19.57;100.00
9421;BME280;4749;51.398;5.466;2022-10-16T10:59:54;101379.75;;;19.57;100.00
9421;BME280;4749;51.398;5.466;2022-10-16T11:11:03;101384.31;;;19.52;100.00
9421;BME280;4749;51.398;5.466;2022-10-16T11:16:35;101385.84;;;19.27;100.00
9421;BME280;4749;51.398;5.466;2022-10-16T11:19:37;101389.41;;;19.27;100.00
9421;BME280;4749;51.398;5.466;2022-10-16T11:22:14;101381.69;;;19.15;100.00
9421;BME280;4749;51.398;5.466;2022-10-16T11:25:11;101389.53;;;19.21;100.00
9421;BME280;4749;51.398;5.466;2022-10-16T11:27:57;101389.03;;;19.41;100.00
9421;BME280;4749;51.398;5.466;2022-10-16T11:30:32;101382.56;;;19.51;100.00
9421;BME280;4749;51.398;5.466;2022-10-16T11:33:26;101386.78;;;19.61;100.00
9421;BME280;4749;51.398;5.466;2022-10-16T11:36:39;101393.56;;;19.73;100.00
9421;BME280;4749;51.398;5.466;2022-10-16T11:39:27;101393.63;;;19.72;100.00
9421;BME280;4749;51.398;5.466;2022-10-16T11:42:13;101391.53;;;19.84;100.00
9421;BME280;4749;51.398;5.466;2022-10-16T11:48:00;101391.47;;;20.18;100.00
9421;BME280;4749;51.398;5.466;2022-10-16T11:50:56;101396.25;;;20.37;100.00
9421;BME280;4749;51.398;5.466;2022-10-16T11:53:53;101398.25;;;20.61;100.00
9421;BME280;4749;51.398;5.466;2022-10-16T11:56:24;101392.84;;;20.63;100.00
9421;BME280;4749;51.398;5.466;2022-10-16T12:02:44;101396.72;;;20.52;100.00
9421;BME280;4749;51.398;5.466;2022-10-16T12:05:33;101398.53;;;20.52;100.00
9421;BME280;4749;51.398;5.466;2022-10-16T12:08:14;101394.19;;;20.77;100.00
9421;BME280;4749;51.398;5.466;2022-10-16T12:10:46;101393.50;;;20.99;100.00
9421;BME280;4749;51.398;5.466;2022-10-16T12:13:34;101399.66;;;21.01;100.00
9421;BME280;4749;51.398;5.466;2022-10-16T12:18:41;101398.09;;;21.22;100.00
9421;BME280;4749;51.398;5.466;2022-10-16T12:21:10;101404.56;;;21.43;100.00
9421;BME280;4749;51.398;5.466;2022-10-16T12:23:53;101419.50;;;21.50;100.00
9421;BME280;4749;51.398;5.466;2022-10-16T12:26:42;101407.78;;;21.52;100.00
9421;BME280;4749;51.398;5.466;2022-10-16T12:29:40;101410.34;;;21.57;100.00
9421;BME280;4749;51.398;5.466;2022-10-16T12:32:36;101397.78;;;21.59;100.00
9421;BME280;4749;51.398;5.466;2022-10-16T12:35:26;101419.50;;;21.50;100.00
9421;BME280;4749;51.398;5.466;2022-10-16T12:38:03;101407.09;;;21.47;100.00
9421;BME280;4749;51.398;5.466;2022-10-16T12:40:34;101395.97;;;21.33;100.00
9421;BME280;4749;51.398;5.466;2022-10-16T12:43:24;101401.94;;;21.13;100.00
9421;BME280;4749;51.398;5.466;2022-10-16T12:48:31;101394.94;;;21.09;100.00
9421;BME280;4749;51.398;5.466;2022-10-16T12:54:15;101402.38;;;20.71;100.00
9421;BME280;4749;51.398;5.466;2022-10-16T13:00:12;101392.78;;;20.33;100.00
9421;BME280;4749;51.398;5.466;2022-10-16T13:28:12;101411.25;;;20.72;100.00
9421;BME280;4749;51.398;5.466;2022-10-16T13:30:50;101415.44;;;20.80;100.00
9421;BME280;4749;51.398;5.466;2022-10-16T13:33:35;101414.25;;;20.91;100.00
9421;BME280;4749;51.398;5.466;2022-10-16T13:36:04;101419.25;;;21.01;100.00
9421;BME280;4749;51.398;5.466;2022-10-16T13:38:36;101418.81;;;21.15;100.00
9421;BME280;4749;51.398;5.466;2022-10-16T13:41:13;101433.34;;;21.36;100.00
9421;BME280;4749;51.398;5.466;2022-10-16T13:43:54;101427.63;;;21.47;100.00
9421;BME280;4749;51.398;5.466;2022-10-16T13:46:25;101418.56;;;21.51;100.00
9421;BME280;4749;51.398;5.466;2022-10-16T13:49:16;101422.28;;;21.47;100.00
9421;BME280;4749;51.398;5.466;2022-10-16T13:51:58;101421.66;;;21.39;100.00
9421;BME280;4749;51.398;5.466;2022-10-16T13:54:27;101419.06;;;21.35;100.00
9421;BME280;4749;51.398;5.466;2022-10-16T13:56:55;101425.56;;;21.28;100.00
9421;BME280;4749;51.398;5.466;2022-10-16T13:59:36;101432.75;;;21.25;100.00
9421;BME280;4749;51.398;5.466;2022-10-16T14:04:54;101424.63;;;21.29;100.00
9421;BME280;4749;51.398;5.466;2022-10-16T14:07:31;101424.78;;;21.23;100.00
9421;BME280;4749;51.398;5.466;2022-10-16T14:10:23;101428.88;;;21.07;100.00
9421;BME280;4749;51.398;5.466;2022-10-16T14:13:05;101426.84;;;20.87;100.00
9421;BME280;4749;51.398;5.466;2022-10-16T14:15:35;101430.50;;;20.83;100.00
9421;BME280;4749;51.398;5.466;2022-10-16T14:18:03;101424.34;;;20.81;100.00
9421;BME280;4749;51.398;5.466;2022-10-16T14:20:33;101421.44;;;20.89;100.00
9421;BME280;4749;51.398;5.466;2022-10-16T14:23:18;101409.88;;;20.88;100.00
9421;BME280;4749;51.398;5.466;2022-10-16T14:25:46;101403.66;;;20.88;100.00
9421;BME280;4749;51.398;5.466;2022-10-16T14:28:20;101412.44;;;20.91;100.00
9421;BME280;4749;51.398;5.466;2022-10-16T14:31:00;101415.06;;;20.93;100.00
9421;BME280;4749;51.398;5.466;2022-10-16T14:38:32;101395.47;;;20.92;100.00
9421;BME280;4749;51.398;5.466;2022-10-16T14:40:59;101408.59;;;21.00;100.00
9421;BME280;4749;51.398;5.466;2022-10-16T14:43:35;101402.94;;;21.11;100.00
9421;BME280;4749;51.398;5.466;2022-10-16T14:46:16;101412.47;;;21.19;100.00
9421;BME280;4749;51.398;5.466;2022-10-16T14:48:48;101409.41;;;21.31;100.00
9421;BME280;4749;51.398;5.466;2022-10-16T14:51:20;101407.53;;;21.33;100.00
9421;BME280;4749;51.398;5.466;2022-10-16T14:53:47;101411.97;;;21.34;100.00
9421;BME280;4749;51.398;5.466;2022-10-16T14:56:24;101416.56;;;21.31;100.00
9421;BME280;4749;51.398;5.466;2022-10-16T14:58:52;101413.22;;;21.23;100.00
9421;BME280;4749;51.398;5.466;2022-10-16T15:01:20;101402.81;;;21.14;100.00
9421;BME280;4749;51.398;5.466;2022-10-16T15:03:53;101396.06;;;21.02;100.00